createdAt,value
2022-11-07T00:00:36.229Z,6.86
2022-11-07T00:01:36.606Z,6.93
2022-11-07T00:02:36.387Z,7
2022-11-07T00:03:36.260Z,7.04
2022-11-07T00:04:36.446Z,7.05
2022-11-07T00:05:36.410Z,7.03
2022-11-07T00:06:36.238Z,7.04
2022-11-07T00:07:36.377Z,7.09
2022-11-07T00:08:36.363Z,7
2022-11-07T00:09:36.350Z,7.09
2022-11-07T00:10:36.329Z,7.03
2022-11-07T00:11:36.166Z,6.97
2022-11-07T00:12:36.297Z,6.86
2022-11-07T00:13:36.283Z,6.88
2022-11-07T00:14:35.761Z,6.88
2022-11-07T00:15:35.995Z,6.73
2022-11-07T00:16:35.979Z,6.75
2022-11-07T00:17:35.723Z,6.7
2022-11-07T00:18:36.206Z,6.76
2022-11-07T00:19:35.979Z,6.76
2022-11-07T00:20:36.199Z,6.65
2022-11-07T00:21:35.913Z,6.65
2022-11-07T00:22:36.160Z,6.67
2022-11-07T00:23:35.872Z,6.61
2022-11-07T00:24:35.609Z,6.61
2022-11-07T00:25:35.843Z,6.55
2022-11-07T00:26:35.827Z,6.54
2022-11-07T00:27:36.103Z,6.54
2022-11-07T00:28:36.056Z,6.52
2022-11-07T00:29:35.779Z,6.58
2022-11-07T00:30:36.019Z,6.47
2022-11-07T00:31:35.767Z,6.46
2022-11-07T00:32:35.736Z,6.44
2022-11-07T00:33:35.981Z,6.47
2022-11-07T00:34:35.969Z,6.36
2022-11-07T00:35:35.746Z,6.4
2022-11-07T00:36:35.700Z,6.37
2022-11-07T00:37:35.916Z,6.4
2022-11-07T00:38:35.643Z,6.36
2022-11-07T00:39:35.370Z,6.34
2022-11-07T00:40:35.621Z,6.33
2022-11-07T00:41:35.599Z,6.28
2022-11-07T00:42:35.856Z,6.2
2022-11-07T00:43:35.570Z,6.15
2022-11-07T00:44:35.811Z,6.17
2022-11-07T00:45:35.536Z,6.24
2022-11-07T00:46:35.417Z,6.24
2022-11-07T00:47:35.758Z,6.13
2022-11-07T00:48:35.500Z,6.1
2022-11-07T00:49:35.476Z,6.2
2022-11-07T00:50:35.740Z,6.18
2022-11-07T00:51:35.750Z,6.2
2022-11-07T00:52:35.710Z,6.15
2022-11-07T00:53:35.417Z,6.06
2022-11-07T00:54:35.665Z,6.03
2022-11-07T00:55:35.384Z,6.07
2022-11-07T00:56:35.626Z,6
2022-11-07T00:57:35.608Z,6.07
2022-11-07T00:58:35.327Z,5.99
2022-11-07T00:59:35.603Z,6.05
2022-11-07T01:00:35.586Z,5.91
2022-11-07T01:01:35.951Z,5.96
2022-11-07T01:02:35.779Z,5.88
2022-11-07T01:03:35.260Z,5.96
2022-11-07T01:04:35.502Z,5.95
2022-11-07T01:05:35.486Z,5.87
2022-11-07T01:06:35.460Z,5.99
2022-11-07T01:07:35.502Z,6.03
2022-11-07T01:08:35.459Z,5.99
2022-11-07T01:09:35.173Z,6.06
2022-11-07T01:10:34.889Z,6.03
2022-11-07T01:11:34.877Z,5.96
2022-11-07T01:12:35.376Z,5.98
2022-11-07T01:13:35.358Z,6.02
2022-11-07T01:14:35.330Z,5.99
2022-11-07T01:15:35.317Z,5.98
2022-11-07T01:16:35.051Z,5.96
2022-11-07T01:17:35.041Z,6
2022-11-07T01:18:35.018Z,5.91
2022-11-07T01:19:34.748Z,5.95
2022-11-07T01:20:34.988Z,5.91
2022-11-07T01:21:34.979Z,5.95
2022-11-07T01:22:35.215Z,6.02
2022-11-07T01:23:35.247Z,5.99
2022-11-07T01:24:35.288Z,5.99
2022-11-07T01:25:35.303Z,6.07
2022-11-07T01:26:36.257Z,6.05
2022-11-07T01:27:35.984Z,6.05
2022-11-07T01:28:36.219Z,6.05
2022-11-07T01:29:35.950Z,6.03
2022-11-07T01:30:36.191Z,6.03
2022-11-07T01:31:35.935Z,6
2022-11-07T01:32:36.153Z,5.99
2022-11-07T01:34:36.140Z,6.07
2022-11-07T01:35:36.106Z,6.03
2022-11-07T01:36:35.595Z,6.06
2022-11-07T01:37:36.088Z,6.17
2022-11-07T01:38:35.821Z,6
2022-11-07T01:39:36.250Z,6.07
2022-11-07T01:40:36.105Z,6.15
2022-11-07T01:41:35.764Z,6.05
2022-11-07T01:42:35.746Z,6.17
2022-11-07T01:43:35.727Z,6.13
2022-11-07T01:44:35.719Z,6.2
2022-11-07T01:45:35.958Z,6.21
2022-11-07T01:46:35.938Z,6.33
2022-11-07T01:47:35.660Z,6.29
2022-11-07T01:48:35.907Z,6.29
2022-11-07T01:49:35.468Z,6.4
2022-11-07T01:50:35.616Z,6.39
2022-11-07T01:51:35.850Z,6.42
2022-11-07T01:52:35.852Z,6.47
2022-11-07T01:53:35.828Z,6.47
2022-11-07T01:54:35.812Z,6.47
2022-11-07T01:55:35.842Z,6.51
2022-11-07T01:56:35.644Z,6.44
2022-11-07T01:57:35.770Z,6.44
2022-11-07T01:58:35.245Z,6.51
2022-11-07T01:59:35.493Z,6.58
2022-11-07T02:00:35.460Z,6.49
2022-11-07T02:01:36.044Z,6.55
2022-11-07T02:02:35.844Z,6.57
2022-11-07T02:03:35.149Z,6.61
2022-11-07T02:04:35.649Z,6.57
2022-11-07T02:05:35.637Z,6.72
2022-11-07T02:06:35.470Z,6.67
2022-11-07T02:07:35.348Z,6.64
2022-11-07T02:08:35.332Z,6.72
2022-11-07T02:09:35.312Z,6.73
2022-11-07T02:10:35.309Z,6.75
2022-11-07T02:11:35.593Z,6.7
2022-11-07T02:12:35.545Z,6.82
2022-11-07T02:13:35.003Z,6.85
2022-11-07T02:14:35.495Z,6.8
2022-11-07T02:15:35.237Z,6.82
2022-11-07T02:16:35.222Z,6.78
2022-11-07T02:17:35.188Z,6.75
2022-11-07T02:18:35.180Z,6.75
2022-11-07T02:19:35.187Z,6.72
2022-11-07T02:20:34.896Z,6.78
2022-11-07T02:21:35.399Z,6.64
2022-11-07T02:22:35.114Z,6.67
2022-11-07T02:23:35.097Z,6.8
2022-11-07T02:24:35.079Z,6.83
2022-11-07T02:25:35.067Z,6.86
2022-11-07T02:26:35.307Z,6.83
2022-11-07T02:27:35.341Z,6.83
2022-11-07T02:28:35.302Z,6.93
2022-11-07T02:29:35.260Z,6.83
2022-11-07T02:30:34.847Z,6.97
2022-11-07T02:31:34.976Z,6.93
2022-11-07T02:32:34.960Z,6.97
2022-11-07T02:33:35.196Z,7.05
2022-11-07T02:34:34.928Z,7.11
2022-11-07T02:35:35.170Z,7.12
2022-11-07T02:36:34.899Z,7.15
2022-11-07T02:37:34.878Z,7.18
2022-11-07T02:38:35.130Z,7.15
2022-11-07T02:39:34.603Z,7.18
2022-11-07T02:40:34.835Z,7.21
2022-11-07T02:41:34.815Z,7.19
2022-11-07T02:42:35.060Z,7.21
2022-11-07T02:43:35.157Z,7.23
2022-11-07T02:44:35.124Z,7.26
2022-11-07T02:45:34.763Z,7.22
2022-11-07T02:46:34.745Z,7.23
2022-11-07T02:47:34.725Z,7.26
2022-11-07T02:48:34.708Z,7.21
2022-11-07T02:49:34.941Z,7.21
2022-11-07T02:50:35.025Z,7.23
2022-11-07T02:51:34.666Z,7.19
2022-11-07T02:52:34.909Z,7.23
2022-11-07T02:53:34.892Z,7.26
2022-11-07T02:54:34.874Z,7.21
2022-11-07T02:55:34.347Z,7.29
2022-11-07T02:56:34.587Z,7.23
2022-11-07T02:57:34.576Z,7.23
2022-11-07T02:58:34.558Z,7.26
2022-11-07T02:59:34.677Z,7.26
2022-11-07T03:00:34.837Z,7.23
2022-11-07T03:01:34.953Z,7.22
2022-11-07T03:02:34.989Z,7.21
2022-11-07T03:03:34.485Z,7.23
2022-11-07T03:04:34.461Z,7.27
2022-11-07T03:05:34.464Z,7.21
2022-11-07T03:06:34.691Z,7.19
2022-11-07T03:07:34.727Z,7.18
2022-11-07T03:08:34.663Z,7.22
2022-11-07T03:09:34.387Z,7.15
2022-11-07T03:10:34.116Z,7.11
2022-11-07T03:11:34.367Z,7.13
2022-11-07T03:12:34.348Z,7.04
2022-11-07T03:13:34.339Z,7.13
2022-11-07T03:14:34.681Z,7.15
2022-11-07T03:15:34.351Z,7.11
2022-11-07T03:16:34.414Z,7.18
2022-11-07T03:17:34.271Z,7.16
2022-11-07T03:18:34.006Z,7.12
2022-11-07T03:19:34.513Z,7.12
2022-11-07T03:20:33.958Z,7.11
2022-11-07T03:21:34.051Z,7.18
2022-11-07T03:22:34.452Z,7.23
2022-11-07T03:23:34.180Z,7.21
2022-11-07T03:24:34.416Z,7.23
2022-11-07T03:25:33.902Z,7.23
2022-11-07T03:26:34.383Z,7.29
2022-11-07T03:27:34.375Z,7.3
2022-11-07T03:28:34.356Z,7.31
2022-11-07T03:29:34.340Z,7.3
2022-11-07T03:30:34.067Z,7.36
2022-11-07T03:31:34.597Z,7.31
2022-11-07T03:32:34.323Z,7.29
2022-11-07T03:49:14.805Z,7.29
2022-11-07T03:50:13.990Z,7.16
2022-11-07T03:51:14.225Z,7.22
2022-11-07T03:52:13.946Z,7.26
2022-11-07T03:53:15.117Z,7.19
2022-11-07T03:54:13.927Z,7.19
2022-11-07T03:55:13.957Z,7.12
2022-11-07T03:56:14.136Z,7.15
2022-11-07T03:57:13.662Z,7.16
2022-11-07T03:58:13.844Z,7.16
2022-11-07T03:59:13.832Z,7.15
2022-11-07T04:00:13.835Z,7.19
2022-11-07T04:01:13.797Z,7.19
2022-11-07T04:02:14.405Z,7.12
2022-11-07T04:03:14.244Z,7.11
2022-11-07T04:04:13.744Z,7.22
2022-11-07T04:05:14.061Z,7.16
2022-11-07T04:06:13.719Z,7.21
2022-11-07T04:07:13.710Z,7.27
2022-11-07T04:08:13.958Z,7.27
2022-11-07T04:09:13.927Z,7.15
2022-11-07T04:10:13.404Z,7.22
2022-11-07T04:11:13.382Z,7.19
2022-11-07T04:12:13.897Z,7.22
2022-11-07T04:13:14.282Z,7.21
2022-11-07T04:14:13.596Z,7.21
2022-11-07T04:15:13.573Z,7.23
2022-11-07T04:16:19.988Z,7.27
2022-11-07T04:17:13.543Z,7.19
2022-11-07T04:18:13.797Z,7.21
2022-11-07T04:19:13.863Z,7.27
2022-11-07T04:20:13.499Z,7.27
2022-11-07T04:21:13.914Z,7.22
2022-11-07T04:22:13.722Z,7.22
2022-11-07T04:23:14.078Z,7.19
2022-11-07T04:24:13.693Z,7.23
2022-11-07T04:25:13.673Z,7.21
2022-11-07T04:26:13.414Z,7.19
2022-11-07T04:27:13.648Z,7.22
2022-11-07T04:28:13.383Z,7.18
2022-11-07T04:29:13.354Z,7.27
2022-11-07T04:30:13.599Z,7.19
2022-11-07T04:31:13.081Z,7.23
2022-11-07T04:32:14.091Z,7.18
2022-11-07T04:33:14.510Z,7.13
2022-11-07T04:34:14.059Z,7.16
2022-11-07T04:35:14.052Z,7.21
2022-11-07T04:36:13.781Z,7.21
2022-11-07T04:37:14.087Z,7.26
2022-11-07T04:38:13.742Z,7.19
2022-11-07T04:39:13.472Z,7.22
2022-11-07T04:40:13.978Z,7.23
2022-11-07T04:41:13.742Z,7.21
2022-11-07T04:42:13.932Z,7.21
2022-11-07T04:43:14.703Z,7.19
2022-11-07T04:44:13.661Z,7.26
2022-11-07T04:45:13.712Z,7.22
2022-11-07T04:46:13.372Z,7.21
2022-11-07T04:47:13.607Z,7.23
2022-11-07T04:48:13.596Z,7.21
2022-11-07T04:49:13.838Z,7.21
2022-11-07T04:50:13.562Z,7.21
2022-11-07T04:51:13.544Z,7.13
2022-11-07T04:52:13.790Z,7.01
2022-11-07T04:53:14.642Z,6.97
2022-11-07T04:54:14.322Z,7.03
2022-11-07T04:55:13.918Z,7
2022-11-07T04:56:13.920Z,6.88
2022-11-07T04:57:13.894Z,6.91
2022-11-07T04:58:13.877Z,6.76
2022-11-07T04:59:13.863Z,6.76
2022-11-07T05:00:14.102Z,6.62
2022-11-07T05:01:13.835Z,6.65
2022-11-07T05:02:14.366Z,6.62
2022-11-07T05:03:14.673Z,6.62
2022-11-07T05:04:13.789Z,6.61
2022-11-07T05:05:13.777Z,6.55
2022-11-07T05:06:13.498Z,6.52
2022-11-07T05:07:13.767Z,6.55
2022-11-07T05:08:13.724Z,6.47
2022-11-07T05:09:14.262Z,6.46
2022-11-07T05:10:16.745Z,6.55
2022-11-07T05:11:13.939Z,6.46
2022-11-07T05:12:13.665Z,6.43
2022-11-07T05:13:13.892Z,6.42
2022-11-07T05:14:13.629Z,6.28
2022-11-07T05:15:13.869Z,6.37
2022-11-07T05:16:13.859Z,6.26
2022-11-07T05:17:13.334Z,6.37
2022-11-07T05:18:13.827Z,6.42
2022-11-07T05:19:13.551Z,6.46
2022-11-07T05:20:13.800Z,6.52
2022-11-07T05:21:13.786Z,6.55
2022-11-07T05:22:13.253Z,6.52
2022-11-07T05:23:14.397Z,6.55
2022-11-07T05:24:13.735Z,6.61
2022-11-07T05:25:13.794Z,6.61
2022-11-07T05:26:13.451Z,6.65
2022-11-07T05:27:13.436Z,6.72
2022-11-07T05:28:13.169Z,6.62
2022-11-07T05:29:13.656Z,6.64
2022-11-07T05:30:13.384Z,6.61
2022-11-07T05:31:13.635Z,6.61
2022-11-07T05:32:13.359Z,6.54
2022-11-07T05:33:13.589Z,6.61
2022-11-07T05:34:19.008Z,6.62
2022-11-07T05:35:13.562Z,6.73
2022-11-07T05:36:13.567Z,6.65
2022-11-07T05:37:13.538Z,6.82
2022-11-07T05:38:13.269Z,6.8
2022-11-07T05:39:13.243Z,6.83
2022-11-07T05:40:12.979Z,7.01
2022-11-07T05:41:13.699Z,7.09
2022-11-07T05:42:13.466Z,7.13
2022-11-07T05:43:13.433Z,7.19
2022-11-07T05:44:13.173Z,7.21
2022-11-07T05:45:14.019Z,7.26
2022-11-07T05:46:13.767Z,7.23
2022-11-07T05:47:13.982Z,7.39
2022-11-07T05:48:13.459Z,7.36
2022-11-07T05:49:13.701Z,7.36
2022-11-07T05:50:13.690Z,7.45
2022-11-07T05:51:13.423Z,7.47
2022-11-07T05:52:13.649Z,7.45
2022-11-07T05:53:14.105Z,7.41
2022-11-07T05:54:13.884Z,7.45
2022-11-07T05:55:13.617Z,7.51
2022-11-07T05:56:13.594Z,7.49
2022-11-07T05:57:13.918Z,7.49
2022-11-07T05:58:13.833Z,7.56
2022-11-07T05:59:13.547Z,7.47
2022-11-07T06:00:13.815Z,7.63
2022-11-07T06:01:13.780Z,7.63
2022-11-07T06:02:14.219Z,7.59
2022-11-07T06:03:14.165Z,7.63
2022-11-07T06:04:13.738Z,7.61
2022-11-07T06:05:13.460Z,7.59
2022-11-07T06:06:13.458Z,7.61
2022-11-07T06:07:13.431Z,7.58
2022-11-07T06:08:13.187Z,7.61
2022-11-07T06:09:13.402Z,7.63
2022-11-07T06:10:13.393Z,7.63
2022-11-07T06:11:13.622Z,7.68
2022-11-07T06:12:13.617Z,7.63
2022-11-07T06:13:14.229Z,7.7
2022-11-07T06:14:13.587Z,7.77
2022-11-07T06:15:13.564Z,7.7
2022-11-07T06:16:13.041Z,7.75
2022-11-07T06:17:13.024Z,7.77
2022-11-07T06:18:13.272Z,7.85
2022-11-07T06:19:13.356Z,7.78
2022-11-07T06:20:13.493Z,7.77
2022-11-07T06:21:13.480Z,7.78
2022-11-07T06:22:13.210Z,7.86
2022-11-07T06:23:13.479Z,7.82
2022-11-07T06:24:19.869Z,7.86
2022-11-07T06:25:13.392Z,7.91
2022-11-07T06:26:13.629Z,7.89
2022-11-07T06:27:13.869Z,7.91
2022-11-07T06:28:13.592Z,7.93
2022-11-07T06:29:13.919Z,8.06
2022-11-07T06:30:13.688Z,7.96
2022-11-07T06:31:13.554Z,7.95
2022-11-07T06:32:13.804Z,8.01
2022-11-07T06:33:14.119Z,7.99
2022-11-07T06:34:13.505Z,8.01
2022-11-07T06:35:13.756Z,8.06
2022-11-07T06:36:13.755Z,8.09
2022-11-07T06:37:13.622Z,8.1
2022-11-07T06:38:13.828Z,8.13
2022-11-07T06:39:13.567Z,8.1
2022-11-07T06:40:13.288Z,8.07
2022-11-07T06:41:13.284Z,8.16
2022-11-07T06:42:13.768Z,8.16
2022-11-07T06:43:13.622Z,8.21
2022-11-07T06:44:13.486Z,8.29
2022-11-07T06:45:13.907Z,8.29
2022-11-07T06:46:13.530Z,8.29
2022-11-07T06:47:13.704Z,8.26
2022-11-07T06:48:13.445Z,8.22
2022-11-07T06:49:13.416Z,8.32
2022-11-07T06:50:13.149Z,8.36
2022-11-07T06:51:13.412Z,8.47
2022-11-07T06:52:13.371Z,8.54
2022-11-07T06:53:14.008Z,8.6
2022-11-07T06:54:13.371Z,8.6
2022-11-07T06:55:13.340Z,8.62
2022-11-07T06:56:13.054Z,8.65
2022-11-07T06:57:13.304Z,8.61
2022-11-07T06:58:13.098Z,8.58
2022-11-07T06:59:13.324Z,8.67
2022-11-07T07:00:13.257Z,8.62
2022-11-07T07:01:13.911Z,8.64
2022-11-07T07:02:21.645Z,8.64
2022-11-07T07:03:13.854Z,8.79
2022-11-07T07:04:13.199Z,8.65
2022-11-07T07:05:15.978Z,8.72
2022-11-07T07:06:12.923Z,8.67
2022-11-07T07:07:13.415Z,8.69
2022-11-07T07:08:13.149Z,8.76
2022-11-07T07:09:12.996Z,8.67
2022-11-07T07:10:13.375Z,8.71
2022-11-07T07:11:13.113Z,8.74
2022-11-07T07:12:12.837Z,8.71
2022-11-07T07:13:13.439Z,8.8
2022-11-07T07:14:16.350Z,8.83
2022-11-07T07:15:13.328Z,8.92
2022-11-07T07:16:13.039Z,8.95
2022-11-07T07:17:13.659Z,8.95
2022-11-07T07:18:13.011Z,8.95
2022-11-07T07:19:13.246Z,9.03
2022-11-07T07:20:12.988Z,8.95
2022-11-07T07:21:12.716Z,9.01
2022-11-07T07:22:12.963Z,9.03
2022-11-07T07:23:12.938Z,9.01
2022-11-07T07:24:13.214Z,8.98
2022-11-07T07:25:12.940Z,9.04
2022-11-07T07:26:13.163Z,9.01
2022-11-07T07:27:12.889Z,9.11
2022-11-07T07:28:13.126Z,9.05
2022-11-07T07:29:12.858Z,9.08
2022-11-07T07:30:12.853Z,9.12
2022-11-07T07:31:12.837Z,9.05
2022-11-07T07:32:12.821Z,9.19
2022-11-07T07:33:13.733Z,9.11
2022-11-07T07:34:13.052Z,9.21
2022-11-07T07:35:12.779Z,9.2
2022-11-07T07:36:16.604Z,9.16
2022-11-07T07:37:13.002Z,9.26
2022-11-07T07:38:12.743Z,9.29
2022-11-07T07:39:12.974Z,9.21
2022-11-07T07:40:12.451Z,9.3
2022-11-07T07:41:12.691Z,9.38
2022-11-07T07:42:12.685Z,9.42
2022-11-07T07:43:12.609Z,9.35
2022-11-07T07:44:12.405Z,9.35
2022-11-07T07:45:12.648Z,9.35
2022-11-07T07:46:12.631Z,9.35
2022-11-07T07:47:15.962Z,9.34
2022-11-07T07:48:12.864Z,9.35
2022-11-07T07:49:13.213Z,9.29
2022-11-07T07:50:12.840Z,9.39
2022-11-07T07:51:12.828Z,9.32
2022-11-07T07:52:12.808Z,9.29
2022-11-07T07:53:14.082Z,9.39
2022-11-07T07:54:12.536Z,9.3
2022-11-07T07:55:12.811Z,9.37
2022-11-07T07:56:12.494Z,9.34
2022-11-07T07:57:12.486Z,9.32
2022-11-07T07:58:12.486Z,9.39
2022-11-07T07:59:12.208Z,9.37
2022-11-07T08:00:12.448Z,9.44
2022-11-07T08:01:12.798Z,9.3
2022-11-07T08:02:12.611Z,9.48
2022-11-07T08:03:12.399Z,9.53
2022-11-07T08:04:12.389Z,9.37
2022-11-07T08:05:12.996Z,9.41
2022-11-07T08:06:12.618Z,9.47
2022-11-07T08:07:12.350Z,9.47
2022-11-07T08:08:12.588Z,9.45
2022-11-07T08:09:12.069Z,9.55
2022-11-07T08:10:46.559Z,9.57
2022-11-07T08:11:12.304Z,9.62
2022-11-07T08:12:12.542Z,9.63
2022-11-07T08:13:12.277Z,9.63
2022-11-07T08:14:12.503Z,9.6
2022-11-07T08:15:12.251Z,9.63
2022-11-07T08:16:12.492Z,9.66
2022-11-07T08:17:12.210Z,9.71
2022-11-07T08:18:12.197Z,9.72
2022-11-07T08:19:12.190Z,9.64
2022-11-07T08:20:12.436Z,9.7
2022-11-07T08:21:12.894Z,9.78
2022-11-07T08:22:12.402Z,9.75
2022-11-07T08:23:19.800Z,9.81
2022-11-07T08:24:12.384Z,9.81
2022-11-07T08:25:12.128Z,9.77
2022-11-07T08:26:12.377Z,9.81
2022-11-07T08:27:12.136Z,9.84
2022-11-07T08:28:12.070Z,9.92
2022-11-07T08:29:12.062Z,9.77
2022-11-07T08:30:19.031Z,9.81
2022-11-07T08:31:11.779Z,9.85
2022-11-07T08:32:11.789Z,9.82
2022-11-07T08:33:12.214Z,9.82
2022-11-07T08:34:12.535Z,9.82
2022-11-07T08:35:11.973Z,9.9
2022-11-07T08:36:12.222Z,9.95
2022-11-07T08:37:12.305Z,9.93
2022-11-07T08:38:11.937Z,9.9
2022-11-07T08:39:12.215Z,10.07
2022-11-07T08:40:12.184Z,10.03
2022-11-07T08:41:11.903Z,10.02
2022-11-07T08:42:11.899Z,10.15
2022-11-07T08:43:12.141Z,10.08
2022-11-07T08:44:11.886Z,10.14
2022-11-07T08:45:12.105Z,10.17
2022-11-07T08:46:11.578Z,10.13
2022-11-07T08:47:13.533Z,10.21
2022-11-07T08:48:11.815Z,10.17
2022-11-07T08:49:11.799Z,10.11
2022-11-07T08:50:12.047Z,10.15
2022-11-07T08:51:11.783Z,10.18
2022-11-07T08:52:11.769Z,10.15
2022-11-07T08:53:12.108Z,10.23
2022-11-07T08:54:11.742Z,10.17
2022-11-07T08:55:11.730Z,10.33
2022-11-07T08:56:11.719Z,10.39
2022-11-07T08:57:11.968Z,10.47
2022-11-07T08:58:11.784Z,10.59
2022-11-07T08:59:11.425Z,10.7
2022-11-07T09:00:11.928Z,10.69
2022-11-07T09:01:12.191Z,10.73
2022-11-07T09:04:06.878Z,10.67
2022-11-07T09:05:06.236Z,10.7
2022-11-07T09:06:05.969Z,10.65
2022-11-07T09:07:06.210Z,10.66
2022-11-07T09:08:05.946Z,10.73
2022-11-07T09:09:06.305Z,10.63
2022-11-07T09:10:06.177Z,10.76
2022-11-07T09:11:05.929Z,10.79
2022-11-07T09:12:05.632Z,10.92
2022-11-07T09:13:05.887Z,10.92
2022-11-07T09:14:05.644Z,10.94
2022-11-07T09:15:05.596Z,10.91
2022-11-07T09:16:06.277Z,10.91
2022-11-07T09:17:05.839Z,10.87
2022-11-07T09:18:06.102Z,10.97
2022-11-07T09:19:05.821Z,10.97
2022-11-07T09:20:06.047Z,11.05
2022-11-07T09:21:05.538Z,11.1
2022-11-07T09:22:05.517Z,11.08
2022-11-07T09:23:05.751Z,11.12
2022-11-07T09:24:06.490Z,11.18
2022-11-07T09:25:06.154Z,11.24
2022-11-07T09:26:06.075Z,11.1
2022-11-07T09:27:05.708Z,11.16
2022-11-07T09:28:05.446Z,11.1
2022-11-07T09:29:06.159Z,11.16
2022-11-07T09:30:05.691Z,11.16
2022-11-07T09:31:05.680Z,11.03
2022-11-07T09:32:46.919Z,11.12
2022-11-07T09:33:05.925Z,11.2
2022-11-07T09:34:05.624Z,11.21
2022-11-07T09:35:09.567Z,11.23
2022-11-07T09:36:05.613Z,11.28
2022-11-07T09:37:05.606Z,11.15
2022-11-07T09:38:05.588Z,11.23
2022-11-07T09:39:05.587Z,11.1
2022-11-07T09:40:05.823Z,11.2
2022-11-07T09:41:05.891Z,11.16
2022-11-07T09:42:05.816Z,11.15
2022-11-07T09:43:05.780Z,11.18
2022-11-07T09:44:07.092Z,11.13
2022-11-07T09:45:05.766Z,11.15
2022-11-07T09:46:05.848Z,11.26
2022-11-07T09:47:05.578Z,11.41
2022-11-07T09:48:05.555Z,11.48
2022-11-07T09:49:05.552Z,11.52
2022-11-07T09:50:05.547Z,11.63
2022-11-07T09:51:05.540Z,11.67
2022-11-07T09:52:05.525Z,11.66
2022-11-07T09:53:05.508Z,11.66
2022-11-07T09:54:05.760Z,11.75
2022-11-07T09:55:05.491Z,11.81
2022-11-07T09:56:05.784Z,11.81
2022-11-07T09:57:07.231Z,11.85
2022-11-07T09:58:05.477Z,12
2022-11-07T09:59:07.457Z,12.03
2022-11-07T10:00:05.681Z,12.05
2022-11-07T10:01:05.970Z,12.26
2022-11-07T10:02:05.633Z,12.07
2022-11-07T10:03:05.397Z,12.05
2022-11-07T10:04:35.115Z,12.03
2022-11-07T10:05:05.693Z,12.03
2022-11-07T10:06:05.622Z,11.91
2022-11-07T10:07:05.356Z,11.88
2022-11-07T10:08:05.601Z,11.81
2022-11-07T10:09:05.329Z,11.81
2022-11-07T10:10:05.317Z,11.76
2022-11-07T10:11:05.308Z,11.78
2022-11-07T10:12:05.090Z,11.78
2022-11-07T10:13:05.729Z,11.78
2022-11-07T10:14:05.280Z,11.81
2022-11-07T10:15:05.008Z,11.89
2022-11-07T10:16:05.503Z,11.84
2022-11-07T10:17:04.989Z,11.97
2022-11-07T10:18:05.490Z,11.97
2022-11-07T10:19:04.961Z,11.89
2022-11-07T10:20:04.957Z,11.91
2022-11-07T10:21:41.581Z,11.88
2022-11-07T10:22:05.445Z,11.81
2022-11-07T10:23:05.216Z,11.81
2022-11-07T10:24:04.924Z,11.7
2022-11-07T10:25:04.901Z,11.68
2022-11-07T10:26:05.156Z,11.67
2022-11-07T10:27:05.389Z,11.61
2022-11-07T10:28:05.121Z,11.66
2022-11-07T10:29:05.431Z,11.71
2022-11-07T10:30:05.362Z,11.71
2022-11-07T10:31:05.097Z,11.81
2022-11-07T10:32:05.325Z,11.73
2022-11-07T10:33:05.323Z,11.78
2022-11-07T10:34:05.307Z,11.84
2022-11-07T10:35:05.334Z,11.85
2022-11-07T10:36:04.775Z,11.82
2022-11-07T10:37:05.269Z,11.84
2022-11-07T10:38:05.022Z,11.84
2022-11-07T10:39:05.259Z,11.82
2022-11-07T10:40:11.033Z,11.75
2022-11-07T10:41:04.986Z,11.7
2022-11-07T10:42:05.225Z,11.7
2022-11-07T10:43:05.213Z,11.64
2022-11-07T10:44:04.948Z,11.75
2022-11-07T10:45:05.271Z,11.82
2022-11-07T10:46:04.922Z,11.91
2022-11-07T10:47:04.923Z,11.95
2022-11-07T10:48:05.664Z,11.85
2022-11-07T10:49:05.674Z,11.97
2022-11-07T10:50:05.328Z,12.1
2022-11-07T10:51:05.580Z,12.15
2022-11-07T10:52:05.028Z,12.18
2022-11-07T10:53:05.278Z,12.4
2022-11-07T10:54:05.269Z,12.56
2022-11-07T10:55:05.508Z,12.63
2022-11-07T10:56:05.494Z,12.76
2022-11-07T10:57:05.492Z,12.92
2022-11-07T10:58:05.223Z,12.86
2022-11-07T10:59:05.474Z,12.95
2022-11-07T11:00:04.950Z,12.89
2022-11-07T11:01:05.839Z,12.96
2022-11-07T11:02:05.625Z,12.96
2022-11-07T11:03:05.180Z,13.07
2022-11-07T11:04:05.417Z,13.03
2022-11-07T11:05:05.191Z,13.09
2022-11-07T11:06:05.398Z,13.13
2022-11-07T11:07:05.121Z,13.11
2022-11-07T11:08:05.381Z,13.13
2022-11-07T11:09:05.371Z,13.16
2022-11-07T11:10:05.092Z,13.17
2022-11-07T11:11:05.080Z,13.11
2022-11-07T11:12:05.326Z,13.11
2022-11-07T11:13:05.326Z,13.13
2022-11-07T11:14:05.317Z,13.07
2022-11-07T11:15:04.789Z,13.1
2022-11-07T11:16:10.410Z,13.1
2022-11-07T11:17:05.305Z,13.06
2022-11-07T11:18:05.041Z,12.99
2022-11-07T11:19:05.275Z,13.06
2022-11-07T11:20:04.993Z,12.96
2022-11-07T11:21:05.018Z,12.98
2022-11-07T11:22:10.984Z,12.77
2022-11-07T11:23:04.721Z,12.86
2022-11-07T11:24:04.968Z,12.76
2022-11-07T11:25:04.713Z,12.65
2022-11-07T11:26:04.946Z,12.63
2022-11-07T11:27:05.198Z,12.66
2022-11-07T11:28:04.656Z,12.53
2022-11-07T11:29:04.914Z,12.4
2022-11-07T11:30:04.897Z,12.4
2022-11-07T11:31:04.890Z,12.52
2022-11-07T11:32:05.255Z,12.58
2022-11-07T11:33:04.891Z,12.59
2022-11-07T11:34:05.114Z,12.47
2022-11-07T11:35:04.604Z,12.53
2022-11-07T11:36:05.095Z,12.56
2022-11-07T11:37:04.816Z,12.43
2022-11-07T11:38:05.067Z,12.43
2022-11-07T11:39:04.842Z,12.43
2022-11-07T11:40:05.074Z,12.34
2022-11-07T11:41:13.114Z,12.28
2022-11-07T11:42:04.776Z,12.16
2022-11-07T11:43:05.023Z,12.19
2022-11-07T11:44:05.010Z,12.13
2022-11-07T11:45:04.995Z,12.07
2022-11-07T11:46:04.728Z,12.05
2022-11-07T11:47:04.723Z,12.05
2022-11-07T11:48:04.785Z,12.03
2022-11-07T11:49:04.981Z,11.88
2022-11-07T11:50:04.440Z,11.88
2022-11-07T11:51:04.938Z,11.75
2022-11-07T11:52:04.923Z,11.84
2022-11-07T11:53:04.919Z,11.78
2022-11-07T11:54:04.900Z,11.78
2022-11-07T11:55:04.679Z,11.64
2022-11-07T11:56:04.627Z,11.67
2022-11-07T11:57:04.878Z,11.66
2022-11-07T11:58:04.859Z,11.71
2022-11-07T11:59:04.851Z,11.68
2022-11-07T12:00:04.655Z,11.73
2022-11-07T12:01:04.323Z,11.67
2022-11-07T12:02:05.070Z,11.71
2022-11-07T12:03:04.550Z,11.76
2022-11-07T12:04:10.849Z,11.78
2022-11-07T12:05:04.807Z,11.75
2022-11-07T12:06:04.773Z,11.78
2022-11-07T12:07:04.511Z,11.73
2022-11-07T12:08:04.747Z,11.78
2022-11-07T12:09:04.476Z,11.79
2022-11-07T12:10:04.482Z,11.81
2022-11-07T12:11:04.500Z,11.82
2022-11-07T12:12:04.448Z,11.82
2022-11-07T12:13:04.428Z,11.81
2022-11-07T12:14:04.688Z,11.76
2022-11-07T12:15:04.679Z,11.79
2022-11-07T12:16:04.669Z,11.84
2022-11-07T12:17:04.649Z,11.91
2022-11-07T12:18:04.638Z,11.76
2022-11-07T12:19:04.692Z,11.76
2022-11-07T12:20:04.670Z,11.86
2022-11-07T12:21:04.639Z,11.82
2022-11-07T12:22:04.334Z,11.95
2022-11-07T12:23:04.408Z,11.79
2022-11-07T12:24:04.409Z,11.82
2022-11-07T12:25:04.320Z,11.94
2022-11-07T12:26:04.310Z,11.94
2022-11-07T12:27:04.293Z,11.88
2022-11-07T12:28:04.284Z,11.89
2022-11-07T12:29:04.277Z,11.97
2022-11-07T12:30:04.256Z,11.94
2022-11-07T12:31:04.495Z,11.97
2022-11-07T12:32:04.483Z,11.97
2022-11-07T12:33:04.212Z,12.05
2022-11-07T12:34:04.455Z,12.04
2022-11-07T12:35:04.457Z,12.13
2022-11-07T12:36:04.247Z,12.01
2022-11-07T12:37:04.470Z,12.08
2022-11-07T12:38:04.437Z,12.13
2022-11-07T12:39:04.158Z,12.07
2022-11-07T12:40:03.887Z,12.05
2022-11-07T12:41:04.137Z,12.16
2022-11-07T12:42:04.121Z,12.11
2022-11-07T12:43:04.712Z,12.03
2022-11-07T12:44:03.841Z,12
2022-11-07T12:45:04.090Z,11.95
2022-11-07T12:46:04.325Z,11.97
2022-11-07T12:47:04.089Z,11.97
2022-11-07T12:48:07.435Z,11.95
2022-11-07T12:49:04.302Z,11.79
2022-11-07T12:50:04.285Z,11.89
2022-11-07T12:51:04.281Z,11.82
2022-11-07T12:52:04.318Z,11.75
2022-11-07T12:53:04.283Z,11.75
2022-11-07T12:54:04.155Z,11.82
2022-11-07T12:55:03.727Z,11.67
2022-11-07T12:56:03.981Z,11.78
2022-11-07T12:57:04.206Z,11.66
2022-11-07T12:58:03.941Z,11.67
2022-11-07T12:59:03.689Z,11.67
2022-11-07T13:00:03.959Z,11.73
2022-11-07T13:01:04.457Z,11.67
2022-11-07T13:02:04.339Z,11.66
2022-11-07T13:03:04.149Z,11.66
2022-11-07T13:04:03.881Z,11.7
2022-11-07T13:05:04.145Z,11.66
2022-11-07T13:06:03.853Z,11.66
2022-11-07T13:07:03.858Z,11.66
2022-11-07T13:08:04.153Z,11.66
2022-11-07T13:09:04.110Z,11.66
2022-11-07T13:10:04.096Z,11.79
2022-11-07T13:11:03.801Z,11.78
2022-11-07T13:12:04.067Z,11.82
2022-11-07T13:13:04.040Z,11.79
2022-11-07T13:14:03.777Z,11.79
2022-11-07T13:15:03.753Z,11.79
2022-11-07T13:16:19.747Z,11.76
2022-11-07T13:17:03.791Z,11.79
2022-11-07T13:18:03.983Z,11.81
2022-11-07T13:19:03.713Z,11.78
2022-11-07T13:20:03.978Z,11.81
2022-11-07T13:21:03.959Z,11.78
2022-11-07T13:22:03.963Z,11.78
2022-11-07T13:23:03.947Z,11.84
2022-11-07T13:24:04.039Z,11.81
2022-11-07T13:25:13.609Z,11.88
2022-11-07T13:26:32.758Z,11.84
2022-11-07T13:27:03.641Z,11.78
2022-11-07T13:28:03.870Z,11.81
2022-11-07T13:29:03.609Z,11.84
2022-11-07T13:30:03.597Z,11.85